Time;durP1;ratioP1;P1;durP2;ratioP2;P2;SDS_P1;SDS_P2;PMS_P1;PMS_P2;Temp;Humidity;BMP_temperature;BMP_pressure;BME280_temperature;BME280_humidity;BME280_pressure;Samples;Min_cycle;Max_cycle;Signal;HPM_P1;HPM_P2
2021/12/22 00:00:25;;;;;;;0.30;0.20;;;-5.70;99.90;;;;;;5069347;28;20209;-84
2021/12/22 00:02:52;;;;;;;0.30;0.20;;;-5.80;99.90;;;;;;5054379;28;20198;-85
2021/12/22 00:05:22;;;;;;;0.43;0.43;;;-5.80;99.90;;;;;;5062673;28;20202;-84
2021/12/22 00:07:50;;;;;;;0.30;0.10;;;-5.80;99.90;;;;;;5054476;28;20205;-85
2021/12/22 00:10:19;;;;;;;0.30;0.10;;;-5.80;99.90;;;;;;5070434;28;20686;-84
2021/12/22 00:12:46;;;;;;;0.30;0.10;;;-5.80;99.90;;;;;;5080986;28;20203;-84
2021/12/22 00:15:13;;;;;;;0.30;0.10;;;-5.80;99.90;;;;;;5080571;28;20198;-85
2021/12/22 00:17:40;;;;;;;0.30;0.10;;;-5.80;99.90;;;;;;5068660;28;20274;-85
2021/12/22 00:20:11;;;;;;;0.30;0.10;;;-5.70;99.90;;;;;;5067404;28;20190;-85
2021/12/22 00:22:38;;;;;;;1.00;1.00;;;-5.50;99.90;;;;;;5068114;28;20205;-85
2021/12/22 00:25:06;;;;;;;0.30;0.10;;;-5.50;99.90;;;;;;5064341;28;20189;-85
2021/12/22 00:27:34;;;;;;;0.30;0.10;;;-5.30;99.90;;;;;;5062132;28;20194;-85
2021/12/22 00:30:01;;;;;;;0.30;0.30;;;-5.20;99.90;;;;;;5063718;28;20205;-84
2021/12/22 00:32:30;;;;;;;0.40;0.30;;;-5.10;99.90;;;;;;5061467;28;20197;-86
2021/12/22 00:34:57;;;;;;;0.40;0.35;;;-5.00;99.90;;;;;;5055903;28;20213;-84
2021/12/22 00:37:26;;;;;;;0.30;0.10;;;-4.90;99.90;;;;;;5057507;28;20233;-87
2021/12/22 00:39:55;;;;;;;0.30;0.10;;;-5.00;99.90;;;;;;5070216;28;20411;-84
2021/12/22 00:42:24;;;;;;;0.30;0.10;;;-5.00;99.90;;;;;;5068681;28;20295;-85
2021/12/22 00:44:54;;;;;;;0.30;0.20;;;-5.10;99.90;;;;;;5069238;28;20479;-85
2021/12/22 00:47:23;;;;;;;0.30;0.10;;;-5.10;99.90;;;;;;5071242;28;20239;-85
2021/12/22 00:49:50;;;;;;;0.30;0.10;;;-5.20;99.90;;;;;;5060333;28;20240;-86
2021/12/22 00:52:17;;;;;;;0.30;0.15;;;-5.30;99.90;;;;;;5064520;28;20194;-86
2021/12/22 00:54:44;;;;;;;0.30;0.10;;;-5.40;99.90;;;;;;5063639;28;20198;-85
2021/12/22 00:57:14;;;;;;;0.30;0.10;;;-5.50;99.90;;;;;;5063874;28;20795;-86
2021/12/22 00:59:42;;;;;;;0.30;0.15;;;-5.50;99.90;;;;;;5065629;28;20800;-86
2021/12/22 01:02:12;;;;;;;0.30;0.10;;;-5.50;99.90;;;;;;5071436;28;20592;-85
2021/12/22 01:04:40;;;;;;;0.30;0.10;;;-5.60;99.90;;;;;;5067755;28;20197;-85
2021/12/22 01:07:07;;;;;;;0.30;0.10;;;-5.70;99.90;;;;;;5061045;28;20202;-85
2021/12/22 01:09:35;;;;;;;0.30;0.10;;;-5.70;99.90;;;;;;5082216;28;20319;-83
2021/12/22 01:12:02;;;;;;;0.30;0.10;;;-5.80;99.90;;;;;;5068160;28;20206;-84
2021/12/22 01:14:31;;;;;;;0.30;0.10;;;-5.80;99.90;;;;;;5068363;28;20200;-84
2021/12/22 01:17:01;;;;;;;0.30;0.10;;;-5.80;99.90;;;;;;5069174;28;20205;-84
2021/12/22 01:19:37;;;;;;;0.30;0.15;;;-5.80;99.90;;;;;;5058221;28;20194;-84
2021/12/22 01:22:18;;;;;;;0.30;0.20;;;-5.80;99.90;;;;;;5056713;28;20242;-84
2021/12/22 01:24:48;;;;;;;0.30;0.10;;;-5.90;99.90;;;;;;5062031;28;20198;-84
2021/12/22 01:27:20;;;;;;;0.30;0.10;;;-5.90;99.90;;;;;;5064009;28;20194;-84
2021/12/22 01:29:47;;;;;;;0.30;0.10;;;-6.00;99.90;;;;;;5068089;28;20193;-85
2021/12/22 01:32:16;;;;;;;0.30;0.10;;;-6.00;99.90;;;;;;5066874;28;20194;-86
2021/12/22 01:34:45;;;;;;;0.82;0.82;;;-6.10;99.90;;;;;;5053941;28;20294;-85
2021/12/22 01:37:12;;;;;;;0.30;0.10;;;-6.10;99.90;;;;;;5067034;28;20217;-85
2021/12/22 01:39:38;;;;;;;0.30;0.10;;;-6.10;99.90;;;;;;5061073;28;20243;-85
2021/12/22 01:42:06;;;;;;;0.30;0.10;;;-6.10;99.90;;;;;;5069554;28;20239;-85
2021/12/22 01:44:47;;;;;;;0.30;0.10;;;-6.10;99.90;;;;;;5068394;28;20190;-85
2021/12/22 01:50:01;;;;;;;0.30;0.10;;;-6.00;99.90;;;;;;5073413;28;20217;-84
2021/12/22 01:52:28;;;;;;;0.30;0.10;;;-6.10;99.90;;;;;;5069006;28;20194;-86
2021/12/22 01:55:06;;;;;;;0.30;0.10;;;-6.10;99.90;;;;;;5059997;28;20644;-84
2021/12/22 01:57:43;;;;;;;0.30;0.10;;;-6.10;99.90;;;;;;5071331;28;20214;-86
2021/12/22 02:00:11;;;;;;;0.30;0.10;;;-6.10;99.90;;;;;;5069881;28;20209;-87
2021/12/22 02:02:38;;;;;;;0.30;0.10;;;-6.10;99.90;;;;;;5073010;28;20205;-84
2021/12/22 02:05:07;;;;;;;0.30;0.10;;;-6.00;99.90;;;;;;5081951;28;20198;-84
2021/12/22 02:07:34;;;;;;;0.30;0.10;;;-5.80;99.90;;;;;;5088385;28;20189;-84
2021/12/22 02:10:11;;;;;;;0.30;0.10;;;-5.60;99.90;;;;;;5078991;28;20263;-85
2021/12/22 02:12:45;;;;;;;0.30;0.10;;;-5.50;99.90;;;;;;5071669;28;20236;-86
2021/12/22 02:15:12;;;;;;;0.30;0.10;;;-5.40;99.90;;;;;;5068353;28;20203;-87
2021/12/22 02:17:40;;;;;;;3.50;1.10;;;-5.30;99.90;;;;;;5071120;28;20290;-87
2021/12/22 02:20:10;;;;;;;0.30;0.10;;;-5.30;99.90;;;;;;5062566;28;20196;-89
2021/12/22 02:22:39;;;;;;;0.30;0.10;;;-5.40;99.90;;;;;;5072831;28;20591;-88
2021/12/22 02:25:13;;;;;;;0.30;0.20;;;-5.40;99.90;;;;;;5058485;28;20225;-87
2021/12/22 02:27:46;;;;;;;0.30;0.10;;;-5.50;99.90;;;;;;5053973;28;20198;-87
2021/12/22 02:30:17;;;;;;;0.30;0.10;;;-5.60;99.90;;;;;;5053631;28;20210;-88
2021/12/22 02:35:39;;;;;;;0.30;0.10;;;-5.70;99.90;;;;;;5062849;28;20193;-87
2021/12/22 02:38:12;;;;;;;0.30;0.20;;;-5.80;99.90;;;;;;5070817;28;20225;-88
2021/12/22 02:40:39;;;;;;;0.30;0.10;;;-5.80;99.90;;;;;;5064699;28;20572;-87
2021/12/22 02:43:06;;;;;;;0.30;0.10;;;-5.80;99.90;;;;;;5051992;28;20587;-88
2021/12/22 02:45:34;;;;;;;0.30;0.10;;;-5.80;99.90;;;;;;5055079;28;20194;-87
2021/12/22 02:48:02;;;;;;;0.30;0.10;;;-5.70;99.90;;;;;;5072405;28;20217;-86
2021/12/22 02:50:32;;;;;;;0.30;0.10;;;-5.60;99.90;;;;;;5068121;28;20637;-88
2021/12/22 02:53:05;;;;;;;0.30;0.10;;;-5.70;99.90;;;;;;5057276;28;20248;-87
2021/12/22 02:55:43;;;;;;;0.30;0.10;;;-5.60;99.90;;;;;;5066925;28;20194;-86
2021/12/22 02:58:14;;;;;;;0.30;0.10;;;-5.70;99.90;;;;;;5064582;28;20324;-87
2021/12/22 03:01:00;;;;;;;0.30;0.10;;;-5.70;99.90;;;;;;5080594;28;20192;-84
2021/12/22 03:03:35;;;;;;;0.30;0.10;;;-5.60;99.90;;;;;;5087796;28;20204;-84
2021/12/22 03:06:08;;;;;;;0.30;0.10;;;-5.60;99.90;;;;;;5079772;28;20200;-84
2021/12/22 03:08:35;;;;;;;0.30;0.10;;;-5.60;99.90;;;;;;5074424;28;20670;-85
2021/12/22 03:11:02;;;;;;;0.30;0.10;;;-5.60;99.90;;;;;;5078442;28;20209;-86
2021/12/22 03:13:31;;;;;;;2.10;0.63;;;-5.60;99.90;;;;;;5073563;28;21684;-85
2021/12/22 03:15:59;;;;;;;0.30;0.10;;;-5.80;99.90;;;;;;5065965;28;20233;-84
2021/12/22 03:18:26;;;;;;;0.30;0.10;;;-5.90;99.90;;;;;;5058712;28;20271;-84
2021/12/22 03:21:01;;;;;;;0.30;0.10;;;-6.10;99.90;;;;;;5068917;28;20197;-85
2021/12/22 03:23:30;;;;;;;0.30;0.10;;;-6.00;99.90;;;;;;5059616;28;20809;-85
2021/12/22 03:25:58;;;;;;;0.30;0.10;;;-6.10;99.90;;;;;;5058170;28;20198;-86
2021/12/22 03:28:25;;;;;;;0.30;0.10;;;-6.20;99.90;;;;;;5063215;28;20563;-85
2021/12/22 03:30:54;;;;;;;0.30;0.10;;;-6.30;99.90;;;;;;5062175;28;20540;-85
2021/12/22 03:33:21;;;;;;;0.30;0.10;;;-6.30;99.90;;;;;;5065284;28;20288;-86
2021/12/22 03:35:48;;;;;;;0.30;0.10;;;-6.30;99.90;;;;;;5058886;28;20197;-86
2021/12/22 03:38:15;;;;;;;0.30;0.10;;;-6.30;99.90;;;;;;5064219;28;20237;-85
2021/12/22 03:40:43;;;;;;;0.30;0.10;;;-6.30;99.90;;;;;;5069006;28;20708;-85
2021/12/22 03:43:10;;;;;;;0.30;0.10;;;-6.30;99.90;;;;;;5065735;28;20585;-85
2021/12/22 03:45:37;;;;;;;0.30;0.10;;;-6.40;99.90;;;;;;5067332;28;20213;-85
2021/12/22 03:48:05;;;;;;;0.30;0.10;;;-6.40;99.90;;;;;;5068369;28;20255;-86
2021/12/22 03:50:32;;;;;;;0.30;0.10;;;-6.50;99.90;;;;;;5062266;28;20239;-87
2021/12/22 03:52:59;;;;;;;0.30;0.10;;;-6.50;99.90;;;;;;5069693;28;20644;-87
2021/12/22 03:55:26;;;;;;;0.30;0.10;;;-6.50;99.90;;;;;;5063854;28;20741;-85
2021/12/22 03:57:54;;;;;;;0.30;0.10;;;-6.60;99.90;;;;;;5069597;28;20283;-86
2021/12/22 04:00:21;;;;;;;0.30;0.20;;;-6.70;99.90;;;;;;5081580;28;20262;-85
2021/12/22 04:02:48;;;;;;;0.30;0.10;;;-6.80;99.90;;;;;;5075383;28;20197;-85
2021/12/22 04:05:17;;;;;;;0.30;0.10;;;-6.70;99.90;;;;;;5069941;28;20189;-85
2021/12/22 04:07:44;;;;;;;0.30;0.10;;;-6.70;99.90;;;;;;5067932;28;20209;-85
2021/12/22 04:10:20;;;;;;;0.30;0.20;;;-6.70;99.90;;;;;;5070238;28;20243;-86
2021/12/22 04:12:48;;;;;;;0.30;0.10;;;-6.60;99.90;;;;;;5066729;28;20200;-86
2021/12/22 04:15:16;;;;;;;0.30;0.10;;;-6.70;99.90;;;;;;5064341;28;20259;-86
2021/12/22 04:17:43;;;;;;;0.30;0.10;;;-6.70;99.90;;;;;;5067376;28;20220;-86
2021/12/22 04:20:11;;;;;;;0.30;0.10;;;-6.60;99.90;;;;;;5053654;28;20194;-86
2021/12/22 04:22:39;;;;;;;0.30;0.10;;;-6.50;99.90;;;;;;5049742;28;20201;-87
2021/12/22 04:25:08;;;;;;;0.30;0.10;;;-6.50;99.90;;;;;;5055221;28;20263;-86
2021/12/22 04:27:35;;;;;;;0.30;0.10;;;-6.60;99.90;;;;;;5069807;28;20202;-86
2021/12/22 04:30:06;;;;;;;0.30;0.10;;;-6.60;99.90;;;;;;5069260;28;20201;-86
2021/12/22 04:32:34;;;;;;;0.30;0.10;;;-6.60;99.90;;;;;;5065175;28;20277;-86
2021/12/22 04:35:01;;;;;;;0.30;0.10;;;-6.60;99.90;;;;;;5068248;28;20202;-85
2021/12/22 04:37:28;;;;;;;0.30;0.10;;;-6.60;99.90;;;;;;5070861;28;20274;-85
2021/12/22 04:39:58;;;;;;;0.30;0.10;;;-6.50;99.90;;;;;;5059077;28;20194;-86
2021/12/22 04:42:24;;;;;;;0.30;0.10;;;-6.60;99.90;;;;;;5068989;28;20193;-87
2021/12/22 04:44:54;;;;;;;0.30;0.20;;;-6.50;99.90;;;;;;5067578;28;20209;-87
2021/12/22 04:47:21;;;;;;;0.30;0.10;;;-6.60;99.90;;;;;;5050837;28;20201;-86
2021/12/22 04:49:50;;;;;;;0.30;0.10;;;-6.60;99.90;;;;;;5059843;28;20846;-86
2021/12/22 04:52:20;;;;;;;0.30;0.10;;;-6.50;99.90;;;;;;5070385;28;20204;-86
2021/12/22 04:54:51;;;;;;;0.30;0.10;;;-6.60;99.90;;;;;;5073946;28;20213;-85
2021/12/22 04:57:18;;;;;;;0.30;0.10;;;-6.60;99.90;;;;;;5085064;28;20197;-85
2021/12/22 04:59:45;;;;;;;0.30;0.10;;;-6.70;99.90;;;;;;5080302;28;20352;-86
2021/12/22 05:02:13;;;;;;;0.30;0.10;;;-6.70;99.90;;;;;;5073309;28;20252;-86
2021/12/22 05:04:41;;;;;;;0.30;0.10;;;-6.80;99.90;;;;;;5071529;28;20683;-88
2021/12/22 05:07:09;;;;;;;0.30;0.10;;;-6.70;99.90;;;;;;5060560;28;20281;-86
2021/12/22 05:09:36;;;;;;;0.30;0.10;;;-6.70;99.90;;;;;;5067604;28;20591;-87
2021/12/22 05:12:04;;;;;;;0.30;0.10;;;-6.70;99.90;;;;;;5062915;28;20207;-85
2021/12/22 05:14:31;;;;;;;0.30;0.10;;;-6.70;99.90;;;;;;5054722;28;20210;-87
2021/12/22 05:17:01;;;;;;;0.30;0.10;;;-6.70;99.90;;;;;;5068283;28;20287;-87
2021/12/22 05:19:29;;;;;;;0.30;0.10;;;-6.70;99.90;;;;;;5068907;28;20217;-86
2021/12/22 05:21:56;;;;;;;0.30;0.10;;;-6.70;99.90;;;;;;5073291;28;20563;-86
2021/12/22 05:24:25;;;;;;;0.30;0.10;;;-6.70;99.90;;;;;;5066703;28;20289;-86
2021/12/22 05:26:52;;;;;;;0.30;0.10;;;-6.60;99.90;;;;;;5056296;28;20197;-86
2021/12/22 05:29:19;;;;;;;0.30;0.10;;;-6.50;99.90;;;;;;5072111;28;21296;-86
2021/12/22 05:31:53;;;;;;;0.30;0.10;;;-6.40;99.90;;;;;;5060265;28;20271;-87
2021/12/22 05:34:19;;;;;;;0.35;0.22;;;-6.40;99.90;;;;;;5073236;28;20834;-88
2021/12/22 05:36:47;;;;;;;0.30;0.10;;;-6.30;99.90;;;;;;5071003;28;20239;-86
2021/12/22 05:39:14;;;;;;;0.30;0.10;;;-6.30;99.90;;;;;;5075188;28;20864;-87
2021/12/22 05:41:42;;;;;;;0.30;0.10;;;-6.30;99.90;;;;;;5067237;28;20715;-88
2021/12/22 05:44:09;;;;;;;0.30;0.10;;;-6.30;99.90;;;;;;5069407;28;20244;-87
2021/12/22 05:46:36;;;;;;;0.30;0.20;;;-6.40;99.90;;;;;;5059024;28;20197;-88
2021/12/22 05:49:03;;;;;;;0.30;0.10;;;-6.40;99.90;;;;;;5064642;28;20202;-88
2021/12/22 05:51:33;;;;;;;0.30;0.10;;;-6.30;99.90;;;;;;5074992;28;20589;-87
2021/12/22 05:54:00;;;;;;;0.30;0.10;;;-6.40;99.90;;;;;;5083588;28;20206;-86
2021/12/22 05:56:30;;;;;;;0.30;0.10;;;-6.40;99.90;;;;;;5082949;28;20197;-87
2021/12/22 05:58:58;;;;;;;0.30;0.10;;;-6.40;99.90;;;;;;5067765;28;20250;-87
2021/12/22 06:01:26;;;;;;;0.30;0.10;;;-6.30;99.90;;;;;;5076106;28;20266;-87
2021/12/22 06:03:53;;;;;;;0.30;0.10;;;-6.30;99.90;;;;;;5071734;28;20228;-86
2021/12/22 06:06:20;;;;;;;0.30;0.10;;;-6.30;99.90;;;;;;5073591;28;20715;-89
2021/12/22 06:08:47;;;;;;;0.30;0.10;;;-6.40;99.90;;;;;;5073672;28;20899;-87
2021/12/22 06:11:14;;;;;;;0.30;0.10;;;-6.40;99.90;;;;;;5073751;28;20622;-86
2021/12/22 06:13:41;;;;;;;0.30;0.10;;;-6.40;99.90;;;;;;5073005;28;20201;-86
2021/12/22 06:16:10;;;;;;;0.30;0.10;;;-6.40;99.90;;;;;;5078373;28;20250;-87
2021/12/22 06:18:42;;;;;;;0.30;0.10;;;-6.40;99.90;;;;;;5071320;28;20229;-87
2021/12/22 06:21:10;;;;;;;0.30;0.10;;;-6.30;99.90;;;;;;5073183;28;20201;-86
2021/12/22 06:23:38;;;;;;;0.30;0.10;;;-6.30;99.90;;;;;;5072293;28;20760;-85
2021/12/22 06:26:04;;;;;;;0.30;0.10;;;-6.40;99.90;;;;;;5072874;28;20217;-85
2021/12/22 06:28:32;;;;;;;0.30;0.20;;;-6.40;99.90;;;;;;5092100;28;20200;-85
2021/12/22 06:30:59;;;;;;;0.30;0.10;;;-6.30;99.90;;;;;;5075909;28;20611;-86
2021/12/22 06:33:27;;;;;;;0.30;0.10;;;-6.40;99.90;;;;;;5065805;28;20206;-86
2021/12/22 06:35:54;;;;;;;0.30;0.10;;;-6.40;99.90;;;;;;5075386;28;20203;-86
2021/12/22 06:38:21;;;;;;;0.30;0.10;;;-6.40;99.90;;;;;;5079252;28;20630;-86
2021/12/22 06:40:48;;;;;;;0.30;0.10;;;-6.50;99.90;;;;;;5072407;28;20208;-86
2021/12/22 06:43:16;;;;;;;0.30;0.10;;;-6.70;99.90;;;;;;5072346;28;20244;-87
2021/12/22 06:45:43;;;;;;;0.30;0.10;;;-6.80;99.90;;;;;;5071259;28;20197;-88
2021/12/22 06:48:11;;;;;;;0.30;0.10;;;-6.80;99.90;;;;;;5069162;28;20248;-87
2021/12/22 06:50:40;;;;;;;0.30;0.10;;;-6.90;99.90;;;;;;5066848;28;20198;-88
2021/12/22 06:53:07;;;;;;;0.30;0.10;;;-6.90;99.90;;;;;;5066039;28;20275;-87
2021/12/22 06:55:34;;;;;;;0.30;0.10;;;-7.00;99.90;;;;;;5060657;28;20193;-87
2021/12/22 06:58:01;;;;;;;0.30;0.10;;;-7.00;99.90;;;;;;5072563;28;20319;-85
2021/12/22 07:00:29;;;;;;;0.30;0.10;;;-7.00;99.90;;;;;;5072253;28;20215;-86
2021/12/22 07:02:57;;;;;;;0.30;0.10;;;-7.00;99.90;;;;;;5070310;28;20785;-86
2021/12/22 07:05:24;;;;;;;0.30;0.10;;;-7.00;99.90;;;;;;5071933;28;20197;-86
2021/12/22 07:07:53;;;;;;;0.30;0.10;;;-7.00;99.90;;;;;;5071299;28;20265;-86
2021/12/22 07:10:19;;;;;;;0.63;0.63;;;-7.00;99.90;;;;;;5071455;28;20197;-87
2021/12/22 07:12:48;;;;;;;0.30;0.10;;;-6.90;99.90;;;;;;5070971;28;20209;-86
2021/12/22 07:15:16;;;;;;;0.30;0.10;;;-6.90;99.90;;;;;;5071565;28;20207;-87
2021/12/22 07:17:44;;;;;;;0.30;0.10;;;-6.90;99.90;;;;;;5052199;28;20198;-89
2021/12/22 07:20:12;;;;;;;0.30;0.10;;;-6.80;99.90;;;;;;5061992;28;20217;-86
2021/12/22 07:22:39;;;;;;;0.30;0.10;;;-6.80;99.90;;;;;;5070963;28;20198;-87
2021/12/22 07:25:09;;;;;;;3.05;0.68;;;-6.70;99.90;;;;;;5064973;28;20274;-86
2021/12/22 07:27:36;;;;;;;0.30;0.10;;;-6.60;99.90;;;;;;5069506;28;20197;-88
2021/12/22 07:30:05;;;;;;;0.30;0.10;;;-6.50;99.90;;;;;;5068056;28;20594;-86
2021/12/22 07:32:32;;;;;;;0.30;0.10;;;-6.40;99.90;;;;;;5070229;28;20201;-86
2021/12/22 07:35:07;;;;;;;0.30;0.10;;;-6.30;99.90;;;;;;5060128;28;20245;-87
2021/12/22 07:37:42;;;;;;;0.30;0.10;;;-6.10;99.90;;;;;;5068560;28;20727;-85
2021/12/22 07:40:14;;;;;;;0.30;0.10;;;-5.90;99.90;;;;;;5070545;28;20221;-83
2021/12/22 07:42:42;;;;;;;0.30;0.10;;;-5.70;99.90;;;;;;5049859;28;20202;-85
2021/12/22 07:45:10;;;;;;;0.30;0.10;;;-5.60;99.90;;;;;;5070918;28;20201;-83
2021/12/22 07:47:37;;;;;;;0.30;0.10;;;-5.60;99.90;;;;;;5079373;28;20232;-82
2021/12/22 07:50:06;;;;;;;0.30;0.10;;;-5.50;99.90;;;;;;5076725;28;20263;-82
2021/12/22 07:52:33;;;;;;;0.30;0.10;;;-5.40;99.90;;;;;;5054079;28;20210;-83
2021/12/22 07:55:00;;;;;;;0.30;0.10;;;-5.40;99.90;;;;;;5055087;28;20776;-81
2021/12/22 07:57:29;;;;;;;0.30;0.10;;;-5.30;99.90;;;;;;5070566;28;20201;-85
2021/12/22 07:59:56;;;;;;;0.30;0.10;;;-5.20;99.90;;;;;;5069547;28;20224;-83
2021/12/22 08:02:22;;;;;;;0.30;0.10;;;-5.20;99.90;;;;;;5070338;28;20197;-83
2021/12/22 08:04:49;;;;;;;0.30;0.10;;;-5.00;99.90;;;;;;5069825;28;20200;-82
2021/12/22 08:07:16;;;;;;;0.30;0.10;;;-5.00;99.90;;;;;;5068809;28;20194;-83
2021/12/22 08:09:44;;;;;;;0.30;0.10;;;-4.90;99.90;;;;;;5070180;28;20271;-83
2021/12/22 08:12:11;;;;;;;0.30;0.10;;;-4.80;99.90;;;;;;5068936;28;20201;-84
2021/12/22 08:14:40;;;;;;;0.30;0.10;;;-4.70;99.90;;;;;;5069126;28;20198;-84
2021/12/22 08:17:08;;;;;;;0.30;0.10;;;-4.60;99.90;;;;;;5069812;28;20205;-91
2021/12/22 08:19:35;;;;;;;0.30;0.20;;;-4.50;99.90;;;;;;5068499;28;20684;-86
2021/12/22 08:22:02;;;;;;;0.30;0.10;;;-4.50;99.90;;;;;;5067957;28;20211;-83
2021/12/22 08:24:29;;;;;;;0.30;0.10;;;-4.50;99.90;;;;;;5061098;28;20209;-84
2021/12/22 08:26:56;;;;;;;0.30;0.10;;;-4.40;99.90;;;;;;5056247;28;20202;-83
2021/12/22 08:29:23;;;;;;;0.30;0.10;;;-4.40;99.90;;;;;;5069918;28;20205;-85
2021/12/22 08:31:52;;;;;;;0.30;0.10;;;-4.30;99.90;;;;;;5070162;28;20670;-83
2021/12/22 08:34:26;;;;;;;0.30;0.10;;;-4.30;99.90;;;;;;5063592;28;20281;-86
2021/12/22 08:39:37;;;;;;;0.30;0.10;;;-4.10;99.90;;;;;;5069696;28;20274;-83
2021/12/22 08:42:05;;;;;;;0.55;0.55;;;-4.10;99.90;;;;;;5074945;28;20856;-83
2021/12/22 08:44:33;;;;;;;0.30;0.10;;;-4.10;99.90;;;;;;5083203;28;20891;-82
2021/12/22 08:47:01;;;;;;;0.30;0.10;;;-4.00;99.90;;;;;;5075908;28;20687;-86
2021/12/22 08:49:28;;;;;;;0.30;0.10;;;-3.80;99.90;;;;;;5069122;28;20660;-83
2021/12/22 08:51:55;;;;;;;0.30;0.10;;;-3.80;99.90;;;;;;5073438;28;20664;-82
2021/12/22 08:54:23;;;;;;;0.30;0.10;;;-3.70;99.90;;;;;;5074238;28;20205;-83
2021/12/22 08:56:50;;;;;;;0.30;0.10;;;-3.70;99.90;;;;;;5073554;28;20247;-82
2021/12/22 08:59:17;;;;;;;0.30;0.10;;;-3.60;99.90;;;;;;5073548;28;20226;-86
2021/12/22 09:01:45;;;;;;;0.30;0.10;;;-3.60;99.90;;;;;;5073633;28;20209;-83
2021/12/22 09:04:13;;;;;;;0.30;0.10;;;-3.60;99.90;;;;;;5060373;28;20277;-83
2021/12/22 09:06:40;;;;;;;0.30;0.10;;;-3.60;99.90;;;;;;5067027;28;20637;-83
2021/12/22 09:09:08;;;;;;;0.30;0.20;;;-3.50;99.90;;;;;;5068818;28;21019;-89
2021/12/22 09:11:36;;;;;;;0.30;0.10;;;-2.00;99.90;;;;;;5063934;28;20255;-85
2021/12/22 09:14:05;;;;;;;0.30;0.10;;;-2.30;99.90;;;;;;5071664;28;20248;-86
2021/12/22 09:16:33;;;;;;;0.30;0.10;;;-2.30;99.90;;;;;;5074185;28;20216;-85
2021/12/22 09:19:00;;;;;;;2.08;1.95;;;-2.50;99.90;;;;;;5073972;28;20198;-84
2021/12/22 09:21:28;;;;;;;0.30;0.10;;;-3.00;99.90;;;;;;5073705;28;20206;-86
2021/12/22 09:23:55;;;;;;;4.00;1.67;;;-3.10;99.90;;;;;;5072881;28;20279;-86
2021/12/22 09:26:22;;;;;;;0.40;0.30;;;-3.20;99.90;;;;;;5074147;28;20588;-85
2021/12/22 09:28:50;;;;;;;0.30;0.30;;;-3.20;99.90;;;;;;5073175;28;20270;-85
2021/12/22 09:31:17;;;;;;;0.30;0.10;;;-3.00;99.90;;;;;;5071874;28;20201;-85
2021/12/22 09:33:44;;;;;;;0.30;0.20;;;-3.00;99.90;;;;;;5073448;28;20221;-85
2021/12/22 09:36:13;;;;;;;0.30;0.10;;;-3.00;99.90;;;;;;5068738;28;20192;-85
2021/12/22 09:38:41;;;;;;;0.30;0.10;;;-2.90;99.90;;;;;;5104034;28;20225;-87
2021/12/22 09:41:10;;;;;;;0.30;0.10;;;-3.00;99.90;;;;;;5095092;28;20236;-83
2021/12/22 09:43:37;;;;;;;0.30;0.10;;;-3.00;99.90;;;;;;5078569;28;20633;-84
2021/12/22 09:46:09;;;;;;;0.30;0.10;;;-3.00;99.90;;;;;;5073953;28;20254;-84
2021/12/22 09:48:48;;;;;;;3.60;1.23;;;-2.80;99.90;;;;;;5071881;28;20235;-84
2021/12/22 09:54:05;;;;;;;0.30;0.10;;;-2.80;99.90;;;;;;5072053;28;20220;-86
2021/12/22 09:56:33;;;;;;;0.30;0.10;;;-2.90;99.90;;;;;;5072316;28;20216;-83
2021/12/22 09:59:01;;;;;;;0.30;0.10;;;-2.80;99.90;;;;;;5071796;28;20672;-84
2021/12/22 10:01:28;;;;;;;0.30;0.10;;;-2.70;99.90;;;;;;5067101;28;20267;-86
2021/12/22 10:03:58;;;;;;;0.30;0.10;;;-2.60;99.90;;;;;;5069025;28;20248;-83
2021/12/22 10:06:26;;;;;;;0.30;0.10;;;-2.50;99.90;;;;;;5071914;28;20250;-84
2021/12/22 10:08:55;;;;;;;0.30;0.10;;;-2.40;99.90;;;;;;5071222;28;20217;-85
2021/12/22 10:11:25;;;;;;;0.30;0.10;;;-2.20;99.90;;;;;;5071526;28;20250;-84
2021/12/22 10:13:52;;;;;;;0.30;0.10;;;-2.20;99.90;;;;;;5071078;28;20202;-83
2021/12/22 10:16:22;;;;;;;0.30;0.10;;;-2.10;99.90;;;;;;5070941;28;20593;-86
2021/12/22 10:19:02;;;;;;;0.30;0.10;;;-2.00;99.90;;;;;;5071588;28;20636;-84
2021/12/22 10:21:29;;;;;;;0.30;0.10;;;-2.00;99.90;;;;;;5070312;28;20225;-84
2021/12/22 10:23:56;;;;;;;0.30;0.10;;;-1.90;99.90;;;;;;5070622;28;20225;-84
2021/12/22 10:26:27;;;;;;;0.30;0.10;;;-1.90;99.90;;;;;;5071685;28;20621;-84
2021/12/22 10:28:56;;;;;;;0.40;0.30;;;-1.80;99.90;;;;;;5072145;28;20577;-84
2021/12/22 10:31:32;;;;;;;0.30;0.10;;;-1.80;99.90;;;;;;5070973;28;20214;-84
2021/12/22 10:34:00;;;;;;;0.30;0.10;;;-1.90;99.90;;;;;;5071631;28;20258;-84
2021/12/22 10:36:28;;;;;;;0.30;0.10;;;-1.90;99.90;;;;;;5085035;28;20288;-82
2021/12/22 10:38:59;;;;;;;0.30;0.10;;;-1.80;99.90;;;;;;5081909;28;20234;-84
2021/12/22 10:41:31;;;;;;;0.30;0.10;;;-1.70;99.90;;;;;;5071456;28;20236;-84
2021/12/22 10:43:59;;;;;;;0.30;0.10;;;-1.50;99.90;;;;;;5069747;28;20197;-88
2021/12/22 10:46:30;;;;;;;0.30;0.15;;;-1.50;99.90;;;;;;5068910;28;20560;-84
2021/12/22 10:49:14;;;;;;;0.30;0.10;;;-1.50;99.90;;;;;;5069130;28;20563;-83
2021/12/22 10:51:43;;;;;;;0.30;0.10;;;-1.20;99.90;;;;;;5070844;28;20680;-84
2021/12/22 10:54:14;;;;;;;0.30;0.10;;;-1.10;99.90;;;;;;5071955;28;20194;-84
2021/12/22 10:56:45;;;;;;;1.05;0.95;;;-1.10;99.90;;;;;;5070785;28;20251;-85
2021/12/22 10:59:13;;;;;;;0.30;0.10;;;-1.10;99.90;;;;;;5059881;28;20300;-84
2021/12/22 11:01:43;;;;;;;2.47;0.90;;;-1.20;99.90;;;;;;5069540;28;20572;-84
2021/12/22 11:04:17;;;;;;;3.13;1.10;;;-1.00;99.90;;;;;;5071370;28;20205;-85
2021/12/22 11:06:44;;;;;;;0.50;0.50;;;-0.90;99.90;;;;;;5069780;28;20190;-84
2021/12/22 11:09:14;;;;;;;0.30;0.10;;;-0.70;99.90;;;;;;5071345;28;20191;-84
2021/12/22 11:11:45;;;;;;;0.40;0.40;;;-0.80;99.90;;;;;;5071447;28;20943;-86
2021/12/22 11:14:16;;;;;;;0.30;0.10;;;-0.70;99.90;;;;;;5069129;28;20248;-87
2021/12/22 11:16:58;;;;;;;0.30;0.10;;;-0.60;99.90;;;;;;5070770;28;20198;-85
2021/12/22 11:19:27;;;;;;;0.30;0.10;;;-0.50;99.90;;;;;;5071001;28;20244;-84
2021/12/22 11:22:03;;;;;;;0.30;0.10;;;-0.50;99.90;;;;;;5071139;28;20250;-87
2021/12/22 11:24:32;;;;;;;0.30;0.10;;;-0.60;99.90;;;;;;5069785;28;20197;-88
2021/12/22 11:27:01;;;;;;;0.30;0.10;;;-0.50;99.90;;;;;;5070670;28;20898;-84
2021/12/22 11:29:28;;;;;;;0.30;0.15;;;-0.50;99.90;;;;;;5071951;28;20290;-87
2021/12/22 11:31:55;;;;;;;0.30;0.10;;;-0.50;99.90;;;;;;5089395;28;20198;-86
2021/12/22 11:34:23;;;;;;;0.30;0.10;;;-0.40;99.90;;;;;;5072608;28;20210;-84
2021/12/22 11:36:51;;;;;;;0.30;0.10;;;-0.50;99.90;;;;;;5075756;28;20203;-87
2021/12/22 11:39:20;;;;;;;0.30;0.10;;;-0.60;99.90;;;;;;5070272;28;20231;-85
2021/12/22 11:41:57;;;;;;;3.13;2.40;;;-0.50;99.90;;;;;;5068410;28;20318;-85
2021/12/22 11:44:26;;;;;;;0.30;0.10;;;-0.40;99.90;;;;;;5070033;28;20209;-85
2021/12/22 11:46:57;;;;;;;1.00;0.93;;;-0.30;99.90;;;;;;5070771;28;20203;-83
2021/12/22 11:49:25;;;;;;;0.30;0.10;;;-0.30;99.90;;;;;;5069938;28;20611;-87
2021/12/22 11:51:52;;;;;;;0.30;0.10;;;-0.20;99.90;;;;;;5066054;28;20660;-85
2021/12/22 11:54:25;;;;;;;0.30;0.10;;;-0.30;99.90;;;;;;5058811;28;20201;-85
2021/12/22 11:56:54;;;;;;;0.30;0.10;;;-0.20;99.90;;;;;;5066554;28;20289;-84
2021/12/22 11:59:35;;;;;;;0.30;0.10;;;-0.20;99.90;;;;;;5058319;28;20195;-87
2021/12/22 12:02:22;;;;;;;0.30;0.10;;;-0.10;99.90;;;;;;5049945;28;20283;-85
2021/12/22 12:04:52;;;;;;;0.30;0.10;;;-0.10;99.90;;;;;;5050214;28;20657;-86
2021/12/22 12:07:45;;;;;;;0.30;0.20;;;0.00;99.90;;;;;;5060249;28;20285;-85
2021/12/22 12:10:32;;;;;;;0.30;0.20;;;-0.10;99.90;;;;;;5069639;28;20200;-85
2021/12/22 12:13:04;;;;;;;0.30;0.20;;;0.10;99.90;;;;;;5058854;28;20207;-85
2021/12/22 12:22:33;;;;;;;0.30;0.10;;;0.10;99.90;;;;;;5041367;28;20215;-88
2021/12/22 12:25:10;;;;;;;0.30;0.10;;;0.10;99.90;;;;;;5069550;28;20821;-85
2021/12/22 12:27:51;;;;;;;0.30;0.10;;;0.00;99.90;;;;;;5075839;28;20265;-85
2021/12/22 12:30:21;;;;;;;0.30;0.10;;;-0.10;99.90;;;;;;5067762;28;20212;-84
2021/12/22 12:33:10;;;;;;;0.30;0.10;;;0.00;99.90;;;;;;5068575;28;20262;-85
2021/12/22 12:35:58;;;;;;;0.30;0.10;;;0.10;99.90;;;;;;5068380;28;20229;-85
2021/12/22 12:38:30;;;;;;;0.30;0.10;;;0.10;99.90;;;;;;5068848;28;20220;-85
2021/12/22 12:41:22;;;;;;;0.30;0.10;;;0.00;99.90;;;;;;5061855;28;20684;-86
2021/12/22 12:44:11;;;;;;;0.30;0.10;;;0.30;99.90;;;;;;5064656;28;20202;-85
2021/12/22 12:46:48;;;;;;;0.30;0.10;;;0.00;99.90;;;;;;5069688;28;20195;-88
2021/12/22 12:49:44;;;;;;;0.30;0.10;;;0.00;99.90;;;;;;5067385;28;20191;-85
2021/12/22 12:52:25;;;;;;;1.05;1.05;;;0.00;99.90;;;;;;5057994;28;20210;-89
2021/12/22 12:55:10;;;;;;;0.30;0.10;;;0.00;99.90;;;;;;5067041;28;20320;-85
2021/12/22 12:57:37;;;;;;;0.30;0.10;;;0.00;99.90;;;;;;5069980;28;20244;-85
2021/12/22 13:00:19;;;;;;;0.30;0.10;;;0.00;99.90;;;;;;5069733;28;20198;-85
2021/12/22 13:02:46;;;;;;;0.30;0.10;;;-0.10;99.90;;;;;;5069013;28;20641;-89
2021/12/22 13:05:16;;;;;;;0.30;0.10;;;-0.10;99.90;;;;;;5058440;28;20253;-90
2021/12/22 13:07:44;;;;;;;0.30;0.10;;;-0.10;99.90;;;;;;5068764;28;20244;-85
2021/12/22 13:10:23;;;;;;;1.05;1.05;;;0.00;99.90;;;;;;5069833;28;20237;-88
2021/12/22 13:15:49;;;;;;;0.30;0.10;;;-0.10;99.90;;;;;;5067887;28;20590;-85
2021/12/22 13:18:23;;;;;;;0.30;0.20;;;-0.10;99.90;;;;;;5069989;28;20251;-89
2021/12/22 13:20:55;;;;;;;0.45;0.30;;;-0.10;99.90;;;;;;5069379;28;20225;-86